sensor_id;sensor_type;location;lat;lon;timestamp;P1;durP1;ratioP1;P2;durP2;ratioP2
9124;SDS011;4597;48.730;9.114;2022-08-14T00:01:08;3.97;;;3.57;;
9124;SDS011;4597;48.730;9.114;2022-08-14T00:03:36;4.87;;;3.57;;
9124;SDS011;4597;48.730;9.114;2022-08-14T00:06:02;3.60;;;3.30;;
9124;SDS011;4597;48.730;9.114;2022-08-14T00:08:28;3.43;;;3.17;;
9124;SDS011;4597;48.730;9.114;2022-08-14T00:10:54;3.93;;;3.43;;
9124;SDS011;4597;48.730;9.114;2022-08-14T00:13:21;3.40;;;3.20;;
9124;SDS011;4597;48.730;9.114;2022-08-14T00:15:50;4.23;;;3.53;;
9124;SDS011;4597;48.730;9.114;2022-08-14T00:18:17;3.70;;;3.40;;
9124;SDS011;4597;48.730;9.114;2022-08-14T00:20:47;3.70;;;3.40;;
9124;SDS011;4597;48.730;9.114;2022-08-14T00:23:13;4.03;;;3.50;;
9124;SDS011;4597;48.730;9.114;2022-08-14T00:25:41;6.03;;;3.53;;
9124;SDS011;4597;48.730;9.114;2022-08-14T00:28:09;4.10;;;3.50;;
9124;SDS011;4597;48.730;9.114;2022-08-14T00:30:36;4.37;;;3.97;;
9124;SDS011;4597;48.730;9.114;2022-08-14T00:33:02;4.10;;;3.40;;
9124;SDS011;4597;48.730;9.114;2022-08-14T00:35:29;4.20;;;3.90;;
9124;SDS011;4597;48.730;9.114;2022-08-14T00:37:55;4.33;;;4.00;;
9124;SDS011;4597;48.730;9.114;2022-08-14T00:40:20;4.63;;;4.03;;
9124;SDS011;4597;48.730;9.114;2022-08-14T00:42:46;4.20;;;3.90;;
9124;SDS011;4597;48.730;9.114;2022-08-14T00:45:13;4.50;;;4.20;;
9124;SDS011;4597;48.730;9.114;2022-08-14T00:47:40;3.97;;;3.60;;
9124;SDS011;4597;48.730;9.114;2022-08-14T00:50:08;3.50;;;3.30;;
9124;SDS011;4597;48.730;9.114;2022-08-14T00:52:36;3.73;;;3.53;;
9124;SDS011;4597;48.730;9.114;2022-08-14T00:55:04;3.10;;;3.00;;
9124;SDS011;4597;48.730;9.114;2022-08-14T00:57:31;4.47;;;3.80;;
9124;SDS011;4597;48.730;9.114;2022-08-14T00:59:58;3.80;;;3.50;;
9124;SDS011;4597;48.730;9.114;2022-08-14T01:02:24;3.97;;;3.47;;
9124;SDS011;4597;48.730;9.114;2022-08-14T01:04:51;3.70;;;3.40;;
9124;SDS011;4597;48.730;9.114;2022-08-14T01:07:19;3.70;;;3.50;;
9124;SDS011;4597;48.730;9.114;2022-08-14T01:09:50;3.90;;;3.70;;
9124;SDS011;4597;48.730;9.114;2022-08-14T01:12:23;3.57;;;3.37;;
9124;SDS011;4597;48.730;9.114;2022-08-14T01:14:50;4.50;;;3.70;;
9124;SDS011;4597;48.730;9.114;2022-08-14T01:17:19;4.17;;;3.93;;
9124;SDS011;4597;48.730;9.114;2022-08-14T01:19:45;4.67;;;3.77;;
9124;SDS011;4597;48.730;9.114;2022-08-14T01:22:30;4.60;;;4.20;;
9124;SDS011;4597;48.730;9.114;2022-08-14T01:24:56;3.83;;;3.60;;
9124;SDS011;4597;48.730;9.114;2022-08-14T01:27:22;4.37;;;3.50;;
9124;SDS011;4597;48.730;9.114;2022-08-14T01:29:49;3.80;;;3.57;;
9124;SDS011;4597;48.730;9.114;2022-08-14T01:32:18;4.20;;;3.90;;
9124;SDS011;4597;48.730;9.114;2022-08-14T01:34:48;4.03;;;3.63;;
9124;SDS011;4597;48.730;9.114;2022-08-14T01:37:17;3.73;;;3.53;;
9124;SDS011;4597;48.730;9.114;2022-08-14T01:39:43;4.30;;;4.00;;
9124;SDS011;4597;48.730;9.114;2022-08-14T01:42:09;4.47;;;3.93;;
9124;SDS011;4597;48.730;9.114;2022-08-14T01:44:35;4.50;;;4.13;;
9124;SDS011;4597;48.730;9.114;2022-08-14T01:47:05;4.30;;;3.97;;
9124;SDS011;4597;48.730;9.114;2022-08-14T01:49:38;4.00;;;3.80;;
9124;SDS011;4597;48.730;9.114;2022-08-14T01:52:04;4.30;;;4.00;;
9124;SDS011;4597;48.730;9.114;2022-08-14T01:54:31;4.00;;;3.70;;
9124;SDS011;4597;48.730;9.114;2022-08-14T01:56:56;4.10;;;3.80;;
9124;SDS011;4597;48.730;9.114;2022-08-14T01:59:23;4.00;;;3.80;;
9124;SDS011;4597;48.730;9.114;2022-08-14T02:01:56;4.30;;;3.93;;
9124;SDS011;4597;48.730;9.114;2022-08-14T02:04:25;3.87;;;3.63;;
9124;SDS011;4597;48.730;9.114;2022-08-14T02:06:54;3.87;;;3.57;;
9124;SDS011;4597;48.730;9.114;2022-08-14T02:09:20;3.47;;;3.17;;
9124;SDS011;4597;48.730;9.114;2022-08-14T02:11:46;4.10;;;3.40;;
9124;SDS011;4597;48.730;9.114;2022-08-14T02:14:12;3.57;;;3.27;;
9124;SDS011;4597;48.730;9.114;2022-08-14T02:16:39;3.60;;;3.40;;
9124;SDS011;4597;48.730;9.114;2022-08-14T02:19:08;3.83;;;3.43;;
9124;SDS011;4597;48.730;9.114;2022-08-14T02:21:40;3.63;;;3.40;;
9124;SDS011;4597;48.730;9.114;2022-08-14T02:24:08;3.23;;;3.03;;
9124;SDS011;4597;48.730;9.114;2022-08-14T02:26:34;3.07;;;2.73;;
9124;SDS011;4597;48.730;9.114;2022-08-14T02:29:09;3.27;;;3.07;;
9124;SDS011;4597;48.730;9.114;2022-08-14T02:31:38;2.97;;;2.87;;
9124;SDS011;4597;48.730;9.114;2022-08-14T02:34:07;3.20;;;3.00;;
9124;SDS011;4597;48.730;9.114;2022-08-14T02:36:37;3.20;;;3.00;;
9124;SDS011;4597;48.730;9.114;2022-08-14T02:39:05;3.43;;;3.23;;
9124;SDS011;4597;48.730;9.114;2022-08-14T02:41:32;3.57;;;3.37;;
9124;SDS011;4597;48.730;9.114;2022-08-14T02:43:59;3.43;;;3.13;;
9124;SDS011;4597;48.730;9.114;2022-08-14T02:46:24;3.87;;;3.67;;
9124;SDS011;4597;48.730;9.114;2022-08-14T02:48:50;3.20;;;3.00;;
9124;SDS011;4597;48.730;9.114;2022-08-14T02:51:15;3.40;;;3.20;;
9124;SDS011;4597;48.730;9.114;2022-08-14T02:53:42;3.60;;;3.30;;
9124;SDS011;4597;48.730;9.114;2022-08-14T02:56:10;3.17;;;2.97;;
9124;SDS011;4597;48.730;9.114;2022-08-14T02:58:42;3.60;;;3.40;;
9124;SDS011;4597;48.730;9.114;2022-08-14T03:01:10;3.87;;;3.57;;
9124;SDS011;4597;48.730;9.114;2022-08-14T03:03:38;3.50;;;3.30;;
9124;SDS011;4597;48.730;9.114;2022-08-14T03:06:04;4.00;;;3.80;;
9124;SDS011;4597;48.730;9.114;2022-08-14T03:08:30;4.17;;;3.77;;
9124;SDS011;4597;48.730;9.114;2022-08-14T03:10:58;4.00;;;3.67;;
9124;SDS011;4597;48.730;9.114;2022-08-14T03:13:25;3.87;;;3.57;;
9124;SDS011;4597;48.730;9.114;2022-08-14T03:15:51;3.57;;;3.37;;
9124;SDS011;4597;48.730;9.114;2022-08-14T03:18:17;3.30;;;3.10;;
9124;SDS011;4597;48.730;9.114;2022-08-14T03:20:47;3.50;;;3.30;;
9124;SDS011;4597;48.730;9.114;2022-08-14T03:23:13;3.50;;;3.33;;
9124;SDS011;4597;48.730;9.114;2022-08-14T03:25:39;3.70;;;3.40;;
9124;SDS011;4597;48.730;9.114;2022-08-14T03:28:05;3.47;;;3.10;;
9124;SDS011;4597;48.730;9.114;2022-08-14T03:30:32;3.30;;;3.00;;
9124;SDS011;4597;48.730;9.114;2022-08-14T03:32:59;3.30;;;3.10;;
9124;SDS011;4597;48.730;9.114;2022-08-14T03:35:25;3.20;;;3.00;;
9124;SDS011;4597;48.730;9.114;2022-08-14T03:37:51;2.97;;;2.87;;
9124;SDS011;4597;48.730;9.114;2022-08-14T03:40:18;3.67;;;3.03;;
9124;SDS011;4597;48.730;9.114;2022-08-14T03:42:45;3.37;;;3.17;;
9124;SDS011;4597;48.730;9.114;2022-08-14T03:45:10;3.53;;;3.33;;
9124;SDS011;4597;48.730;9.114;2022-08-14T03:47:38;3.30;;;3.10;;
9124;SDS011;4597;48.730;9.114;2022-08-14T03:50:07;4.23;;;3.40;;
9124;SDS011;4597;48.730;9.114;2022-08-14T03:52:34;3.67;;;3.43;;
9124;SDS011;4597;48.730;9.114;2022-08-14T03:55:07;3.53;;;3.40;;
9124;SDS011;4597;48.730;9.114;2022-08-14T03:57:36;3.40;;;3.20;;
9124;SDS011;4597;48.730;9.114;2022-08-14T04:00:06;4.03;;;3.73;;
9124;SDS011;4597;48.730;9.114;2022-08-14T04:02:36;3.90;;;3.60;;
9124;SDS011;4597;48.730;9.114;2022-08-14T04:05:02;3.53;;;3.23;;
9124;SDS011;4597;48.730;9.114;2022-08-14T04:07:32;3.70;;;3.50;;
9124;SDS011;4597;48.730;9.114;2022-08-14T04:09:58;3.60;;;3.40;;
9124;SDS011;4597;48.730;9.114;2022-08-14T04:12:25;3.80;;;3.50;;
9124;SDS011;4597;48.730;9.114;2022-08-14T04:14:50;4.00;;;3.70;;
9124;SDS011;4597;48.730;9.114;2022-08-14T04:17:17;3.77;;;3.37;;
9124;SDS011;4597;48.730;9.114;2022-08-14T04:19:43;4.10;;;3.50;;
9124;SDS011;4597;48.730;9.114;2022-08-14T04:22:10;3.70;;;3.40;;
9124;SDS011;4597;48.730;9.114;2022-08-14T04:24:37;3.63;;;3.43;;
9124;SDS011;4597;48.730;9.114;2022-08-14T04:27:07;3.70;;;3.50;;
9124;SDS011;4597;48.730;9.114;2022-08-14T04:29:40;4.13;;;3.83;;
9124;SDS011;4597;48.730;9.114;2022-08-14T04:32:07;3.63;;;3.43;;
9124;SDS011;4597;48.730;9.114;2022-08-14T04:34:35;3.50;;;3.30;;
9124;SDS011;4597;48.730;9.114;2022-08-14T04:37:04;3.57;;;3.37;;
9124;SDS011;4597;48.730;9.114;2022-08-14T04:39:49;3.63;;;3.40;;
9124;SDS011;4597;48.730;9.114;2022-08-14T04:42:33;4.10;;;3.73;;
9124;SDS011;4597;48.730;9.114;2022-08-14T04:45:21;3.80;;;3.60;;
9124;SDS011;4597;48.730;9.114;2022-08-14T04:47:47;3.60;;;3.30;;
9124;SDS011;4597;48.730;9.114;2022-08-14T04:50:32;4.20;;;3.80;;
9124;SDS011;4597;48.730;9.114;2022-08-14T04:52:59;4.03;;;3.73;;
9124;SDS011;4597;48.730;9.114;2022-08-14T04:55:25;4.40;;;3.53;;
9124;SDS011;4597;48.730;9.114;2022-08-14T04:57:51;4.87;;;3.53;;
9124;SDS011;4597;48.730;9.114;2022-08-14T05:00:16;3.60;;;3.40;;
9124;SDS011;4597;48.730;9.114;2022-08-14T05:02:42;4.07;;;3.77;;
9124;SDS011;4597;48.730;9.114;2022-08-14T05:05:08;3.83;;;3.53;;
9124;SDS011;4597;48.730;9.114;2022-08-14T05:07:34;3.77;;;3.57;;
9124;SDS011;4597;48.730;9.114;2022-08-14T05:09:59;3.73;;;3.53;;
9124;SDS011;4597;48.730;9.114;2022-08-14T05:12:25;3.43;;;3.23;;
9124;SDS011;4597;48.730;9.114;2022-08-14T05:14:52;3.40;;;3.20;;
9124;SDS011;4597;48.730;9.114;2022-08-14T05:17:18;3.50;;;3.30;;
9124;SDS011;4597;48.730;9.114;2022-08-14T05:19:49;5.37;;;3.37;;
9124;SDS011;4597;48.730;9.114;2022-08-14T05:22:15;4.00;;;3.50;;
9124;SDS011;4597;48.730;9.114;2022-08-14T05:24:40;3.30;;;3.10;;
9124;SDS011;4597;48.730;9.114;2022-08-14T05:27:06;3.80;;;3.60;;
9124;SDS011;4597;48.730;9.114;2022-08-14T05:29:33;3.73;;;3.50;;
9124;SDS011;4597;48.730;9.114;2022-08-14T05:31:59;4.10;;;3.40;;
9124;SDS011;4597;48.730;9.114;2022-08-14T05:34:31;3.73;;;3.43;;
9124;SDS011;4597;48.730;9.114;2022-08-14T05:36:58;3.30;;;3.13;;
9124;SDS011;4597;48.730;9.114;2022-08-14T05:39:26;3.27;;;3.00;;
9124;SDS011;4597;48.730;9.114;2022-08-14T05:41:51;3.67;;;3.40;;
9124;SDS011;4597;48.730;9.114;2022-08-14T05:44:17;3.47;;;3.20;;
9124;SDS011;4597;48.730;9.114;2022-08-14T05:46:43;3.27;;;3.07;;
9124;SDS011;4597;48.730;9.114;2022-08-14T05:49:08;3.70;;;3.40;;
9124;SDS011;4597;48.730;9.114;2022-08-14T05:51:34;3.90;;;3.67;;
9124;SDS011;4597;48.730;9.114;2022-08-14T05:54:00;3.47;;;3.27;;
9124;SDS011;4597;48.730;9.114;2022-08-14T05:56:25;3.90;;;3.60;;
9124;SDS011;4597;48.730;9.114;2022-08-14T05:58:51;3.70;;;3.40;;
9124;SDS011;4597;48.730;9.114;2022-08-14T06:01:18;4.47;;;4.03;;
9124;SDS011;4597;48.730;9.114;2022-08-14T06:03:43;3.67;;;3.47;;
9124;SDS011;4597;48.730;9.114;2022-08-14T06:06:09;3.90;;;3.50;;
9124;SDS011;4597;48.730;9.114;2022-08-14T06:08:35;4.87;;;3.80;;
9124;SDS011;4597;48.730;9.114;2022-08-14T06:11:01;4.30;;;4.00;;
9124;SDS011;4597;48.730;9.114;2022-08-14T06:13:29;4.23;;;3.87;;
9124;SDS011;4597;48.730;9.114;2022-08-14T06:15:56;4.40;;;4.10;;
9124;SDS011;4597;48.730;9.114;2022-08-14T06:18:22;3.67;;;3.47;;
9124;SDS011;4597;48.730;9.114;2022-08-14T06:20:48;4.43;;;4.13;;
9124;SDS011;4597;48.730;9.114;2022-08-14T06:23:14;4.10;;;3.90;;
9124;SDS011;4597;48.730;9.114;2022-08-14T06:25:40;4.80;;;4.40;;
9124;SDS011;4597;48.730;9.114;2022-08-14T06:28:06;4.97;;;4.13;;
9124;SDS011;4597;48.730;9.114;2022-08-14T06:30:32;4.70;;;4.30;;
9124;SDS011;4597;48.730;9.114;2022-08-14T06:32:58;4.50;;;4.20;;
9124;SDS011;4597;48.730;9.114;2022-08-14T06:35:24;4.60;;;4.23;;
9124;SDS011;4597;48.730;9.114;2022-08-14T06:37:51;5.33;;;4.83;;
9124;SDS011;4597;48.730;9.114;2022-08-14T06:40:22;4.40;;;4.13;;
9124;SDS011;4597;48.730;9.114;2022-08-14T06:42:50;4.33;;;4.03;;
9124;SDS011;4597;48.730;9.114;2022-08-14T06:45:16;4.70;;;4.30;;
9124;SDS011;4597;48.730;9.114;2022-08-14T06:47:43;4.80;;;4.40;;
9124;SDS011;4597;48.730;9.114;2022-08-14T06:50:10;4.07;;;3.87;;
9124;SDS011;4597;48.730;9.114;2022-08-14T06:52:39;4.80;;;4.50;;
9124;SDS011;4597;48.730;9.114;2022-08-14T06:55:07;5.53;;;4.63;;
9124;SDS011;4597;48.730;9.114;2022-08-14T06:57:42;4.80;;;4.50;;
9124;SDS011;4597;48.730;9.114;2022-08-14T07:00:22;4.97;;;4.57;;
9124;SDS011;4597;48.730;9.114;2022-08-14T07:02:49;6.13;;;4.90;;
9124;SDS011;4597;48.730;9.114;2022-08-14T07:05:34;5.13;;;4.50;;
9124;SDS011;4597;48.730;9.114;2022-08-14T07:10:51;4.50;;;3.87;;
9124;SDS011;4597;48.730;9.114;2022-08-14T07:13:18;3.50;;;3.30;;
9124;SDS011;4597;48.730;9.114;2022-08-14T07:15:46;3.73;;;3.43;;
9124;SDS011;4597;48.730;9.114;2022-08-14T07:18:19;3.90;;;3.60;;
9124;SDS011;4597;48.730;9.114;2022-08-14T07:20:50;3.77;;;3.33;;
9124;SDS011;4597;48.730;9.114;2022-08-14T07:23:17;3.03;;;2.93;;
9124;SDS011;4597;48.730;9.114;2022-08-14T07:25:43;3.60;;;3.40;;
9124;SDS011;4597;48.730;9.114;2022-08-14T07:28:13;4.17;;;3.60;;
9124;SDS011;4597;48.730;9.114;2022-08-14T07:30:43;3.10;;;3.00;;
9124;SDS011;4597;48.730;9.114;2022-08-14T07:33:09;3.27;;;3.17;;
9124;SDS011;4597;48.730;9.114;2022-08-14T07:35:36;3.67;;;3.37;;
9124;SDS011;4597;48.730;9.114;2022-08-14T07:38:03;4.23;;;3.50;;
9124;SDS011;4597;48.730;9.114;2022-08-14T07:40:29;3.67;;;3.47;;
9124;SDS011;4597;48.730;9.114;2022-08-14T07:42:55;4.00;;;3.80;;
9124;SDS011;4597;48.730;9.114;2022-08-14T07:45:21;3.50;;;3.30;;
9124;SDS011;4597;48.730;9.114;2022-08-14T07:47:47;3.80;;;3.50;;
9124;SDS011;4597;48.730;9.114;2022-08-14T07:50:13;4.10;;;3.70;;
9124;SDS011;4597;48.730;9.114;2022-08-14T07:52:41;3.90;;;3.60;;
9124;SDS011;4597;48.730;9.114;2022-08-14T07:55:08;4.40;;;4.10;;
9124;SDS011;4597;48.730;9.114;2022-08-14T07:57:35;4.27;;;3.93;;
9124;SDS011;4597;48.730;9.114;2022-08-14T08:00:02;4.33;;;3.93;;
9124;SDS011;4597;48.730;9.114;2022-08-14T08:02:29;3.77;;;3.47;;
9124;SDS011;4597;48.730;9.114;2022-08-14T08:04:55;5.53;;;3.70;;
9124;SDS011;4597;48.730;9.114;2022-08-14T08:07:24;4.13;;;3.83;;
9124;SDS011;4597;48.730;9.114;2022-08-14T08:09:53;4.07;;;3.73;;
9124;SDS011;4597;48.730;9.114;2022-08-14T08:12:21;4.30;;;4.00;;
9124;SDS011;4597;48.730;9.114;2022-08-14T08:14:49;3.87;;;3.40;;
9124;SDS011;4597;48.730;9.114;2022-08-14T08:17:18;4.73;;;3.33;;
9124;SDS011;4597;48.730;9.114;2022-08-14T08:19:46;3.87;;;3.57;;
9124;SDS011;4597;48.730;9.114;2022-08-14T08:22:12;3.47;;;3.27;;
9124;SDS011;4597;48.730;9.114;2022-08-14T08:24:39;3.70;;;3.33;;
9124;SDS011;4597;48.730;9.114;2022-08-14T08:27:17;3.33;;;3.13;;
9124;SDS011;4597;48.730;9.114;2022-08-14T08:29:43;3.60;;;3.40;;
9124;SDS011;4597;48.730;9.114;2022-08-14T08:32:09;3.33;;;3.03;;
9124;SDS011;4597;48.730;9.114;2022-08-14T08:34:41;3.63;;;3.33;;
9124;SDS011;4597;48.730;9.114;2022-08-14T08:37:13;3.30;;;3.10;;
9124;SDS011;4597;48.730;9.114;2022-08-14T08:39:45;3.60;;;3.40;;
9124;SDS011;4597;48.730;9.114;2022-08-14T08:42:11;3.63;;;3.33;;
9124;SDS011;4597;48.730;9.114;2022-08-14T08:44:37;4.13;;;3.67;;
9124;SDS011;4597;48.730;9.114;2022-08-14T08:47:03;3.07;;;2.97;;
9124;SDS011;4597;48.730;9.114;2022-08-14T08:49:36;3.40;;;3.20;;
9124;SDS011;4597;48.730;9.114;2022-08-14T08:52:09;3.53;;;3.33;;
9124;SDS011;4597;48.730;9.114;2022-08-14T08:54:35;3.77;;;3.50;;
9124;SDS011;4597;48.730;9.114;2022-08-14T08:57:09;3.23;;;3.03;;
9124;SDS011;4597;48.730;9.114;2022-08-14T08:59:35;3.47;;;3.27;;
9124;SDS011;4597;48.730;9.114;2022-08-14T09:02:02;2.90;;;2.80;;
9124;SDS011;4597;48.730;9.114;2022-08-14T09:04:34;3.58;;;3.28;;
9124;SDS011;4597;48.730;9.114;2022-08-14T09:07:00;4.13;;;3.27;;
9124;SDS011;4597;48.730;9.114;2022-08-14T09:09:26;2.90;;;2.70;;
9124;SDS011;4597;48.730;9.114;2022-08-14T09:11:54;2.70;;;2.60;;
9124;SDS011;4597;48.730;9.114;2022-08-14T09:14:22;2.58;;;2.47;;
9124;SDS011;4597;48.730;9.114;2022-08-14T09:16:53;3.20;;;3.00;;
9124;SDS011;4597;48.730;9.114;2022-08-14T09:19:21;3.42;;;3.10;;
9124;SDS011;4597;48.730;9.114;2022-08-14T09:21:46;3.00;;;2.90;;
9124;SDS011;4597;48.730;9.114;2022-08-14T09:24:12;2.60;;;2.50;;
9124;SDS011;4597;48.730;9.114;2022-08-14T09:26:39;2.80;;;2.60;;
9124;SDS011;4597;48.730;9.114;2022-08-14T09:29:06;2.90;;;2.80;;
9124;SDS011;4597;48.730;9.114;2022-08-14T09:31:33;2.97;;;2.78;;
9124;SDS011;4597;48.730;9.114;2022-08-14T09:34:07;3.00;;;2.90;;
9124;SDS011;4597;48.730;9.114;2022-08-14T09:45:12;3.20;;;2.88;;
9124;SDS011;4597;48.730;9.114;2022-08-14T09:47:50;3.33;;;3.17;;
9124;SDS011;4597;48.730;9.114;2022-08-14T09:50:18;2.95;;;2.72;;
9124;SDS011;4597;48.730;9.114;2022-08-14T09:53:07;3.33;;;3.13;;
9124;SDS011;4597;48.730;9.114;2022-08-14T09:55:35;3.03;;;2.83;;
9124;SDS011;4597;48.730;9.114;2022-08-14T09:58:08;3.00;;;2.90;;
9124;SDS011;4597;48.730;9.114;2022-08-14T10:03:28;3.20;;;3.10;;
9124;SDS011;4597;48.730;9.114;2022-08-14T10:06:30;3.28;;;3.08;;
9124;SDS011;4597;48.730;9.114;2022-08-14T10:08:56;3.10;;;3.00;;
9124;SDS011;4597;48.730;9.114;2022-08-14T10:11:32;3.42;;;3.22;;
9124;SDS011;4597;48.730;9.114;2022-08-14T10:16:42;3.30;;;3.00;;
9124;SDS011;4597;48.730;9.114;2022-08-14T10:19:19;3.58;;;3.17;;
9124;SDS011;4597;48.730;9.114;2022-08-14T10:21:56;3.78;;;3.47;;
9124;SDS011;4597;48.730;9.114;2022-08-14T10:24:28;3.40;;;3.20;;
9124;SDS011;4597;48.730;9.114;2022-08-14T10:26:56;3.45;;;3.15;;
9124;SDS011;4597;48.730;9.114;2022-08-14T10:29:36;3.55;;;3.35;;
9124;SDS011;4597;48.730;9.114;2022-08-14T10:32:04;3.40;;;3.17;;
9124;SDS011;4597;48.730;9.114;2022-08-14T10:34:31;3.80;;;3.40;;
9124;SDS011;4597;48.730;9.114;2022-08-14T10:37:05;3.65;;;3.38;;
9124;SDS011;4597;48.730;9.114;2022-08-14T10:39:37;4.18;;;3.33;;
9124;SDS011;4597;48.730;9.114;2022-08-14T10:42:04;3.67;;;3.40;;
9124;SDS011;4597;48.730;9.114;2022-08-14T10:44:36;3.50;;;3.30;;
9124;SDS011;4597;48.730;9.114;2022-08-14T10:47:04;3.70;;;3.50;;
9124;SDS011;4597;48.730;9.114;2022-08-14T10:49:34;3.53;;;3.28;;
9124;SDS011;4597;48.730;9.114;2022-08-14T10:52:08;3.70;;;3.40;;
9124;SDS011;4597;48.730;9.114;2022-08-14T11:02:18;3.42;;;3.22;;
9124;SDS011;4597;48.730;9.114;2022-08-14T11:05:01;3.80;;;3.50;;
9124;SDS011;4597;48.730;9.114;2022-08-14T11:07:32;3.78;;;3.58;;
9124;SDS011;4597;48.730;9.114;2022-08-14T11:10:02;4.00;;;3.80;;
9124;SDS011;4597;48.730;9.114;2022-08-14T11:12:49;4.00;;;3.80;;
9124;SDS011;4597;48.730;9.114;2022-08-14T11:15:20;3.33;;;3.22;;
9124;SDS011;4597;48.730;9.114;2022-08-14T11:17:48;3.70;;;3.50;;
9124;SDS011;4597;48.730;9.114;2022-08-14T11:20:16;3.40;;;3.30;;
9124;SDS011;4597;48.730;9.114;2022-08-14T11:22:44;4.00;;;3.70;;
9124;SDS011;4597;48.730;9.114;2022-08-14T11:25:12;3.80;;;3.65;;
9124;SDS011;4597;48.730;9.114;2022-08-14T11:27:44;5.68;;;3.53;;
9124;SDS011;4597;48.730;9.114;2022-08-14T11:30:15;3.60;;;3.40;;
9124;SDS011;4597;48.730;9.114;2022-08-14T11:32:42;3.80;;;3.60;;
9124;SDS011;4597;48.730;9.114;2022-08-14T11:35:13;4.22;;;3.92;;
9124;SDS011;4597;48.730;9.114;2022-08-14T11:37:52;3.92;;;3.63;;
9124;SDS011;4597;48.730;9.114;2022-08-14T11:40:23;3.38;;;3.00;;
9124;SDS011;4597;48.730;9.114;2022-08-14T11:42:53;3.90;;;3.60;;
9124;SDS011;4597;48.730;9.114;2022-08-14T11:45:20;3.28;;;3.00;;
9124;SDS011;4597;48.730;9.114;2022-08-14T11:47:51;3.85;;;3.60;;
9124;SDS011;4597;48.730;9.114;2022-08-14T11:50:22;3.50;;;3.30;;
9124;SDS011;4597;48.730;9.114;2022-08-14T11:52:49;3.72;;;3.40;;
9124;SDS011;4597;48.730;9.114;2022-08-14T11:55:19;3.67;;;3.50;;
9124;SDS011;4597;48.730;9.114;2022-08-14T11:57:45;3.80;;;3.50;;
9124;SDS011;4597;48.730;9.114;2022-08-14T12:00:23;3.50;;;3.20;;
9124;SDS011;4597;48.730;9.114;2022-08-14T12:02:53;3.42;;;3.10;;
9124;SDS011;4597;48.730;9.114;2022-08-14T12:05:30;3.63;;;3.35;;
9124;SDS011;4597;48.730;9.114;2022-08-14T12:08:03;3.58;;;3.42;;
9124;SDS011;4597;48.730;9.114;2022-08-14T12:10:31;3.90;;;3.70;;
9124;SDS011;4597;48.730;9.114;2022-08-14T12:13:08;3.70;;;3.50;;
9124;SDS011;4597;48.730;9.114;2022-08-14T12:15:35;3.42;;;3.33;;
9124;SDS011;4597;48.730;9.114;2022-08-14T12:18:01;3.67;;;3.50;;
9124;SDS011;4597;48.730;9.114;2022-08-14T12:20:31;3.67;;;3.47;;
9124;SDS011;4597;48.730;9.114;2022-08-14T12:23:01;3.38;;;3.28;;
9124;SDS011;4597;48.730;9.114;2022-08-14T12:25:29;3.97;;;3.72;;
9124;SDS011;4597;48.730;9.114;2022-08-14T12:27:56;3.78;;;3.58;;
9124;SDS011;4597;48.730;9.114;2022-08-14T12:30:35;4.07;;;3.78;;
9124;SDS011;4597;48.730;9.114;2022-08-14T12:33:04;4.95;;;3.80;;
9124;SDS011;4597;48.730;9.114;2022-08-14T12:35:46;3.65;;;3.45;;
9124;SDS011;4597;48.730;9.114;2022-08-14T12:38:13;3.78;;;3.67;;
9124;SDS011;4597;48.730;9.114;2022-08-14T12:40:48;3.83;;;3.53;;
9124;SDS011;4597;48.730;9.114;2022-08-14T12:43:15;3.60;;;3.40;;
9124;SDS011;4597;48.730;9.114;2022-08-14T12:45:45;3.40;;;3.30;;
9124;SDS011;4597;48.730;9.114;2022-08-14T12:48:16;3.58;;;3.47;;
9124;SDS011;4597;48.730;9.114;2022-08-14T12:50:43;3.55;;;3.45;;
9124;SDS011;4597;48.730;9.114;2022-08-14T12:53:09;3.75;;;3.40;;
9124;SDS011;4597;48.730;9.114;2022-08-14T12:55:36;3.83;;;3.60;;
9124;SDS011;4597;48.730;9.114;2022-08-14T12:58:03;3.33;;;3.20;;
9124;SDS011;4597;48.730;9.114;2022-08-14T13:00:30;4.00;;;3.55;;
9124;SDS011;4597;48.730;9.114;2022-08-14T13:02:58;3.83;;;3.63;;
9124;SDS011;4597;48.730;9.114;2022-08-14T13:05:25;3.50;;;3.30;;
9124;SDS011;4597;48.730;9.114;2022-08-14T13:07:53;3.30;;;3.20;;
9124;SDS011;4597;48.730;9.114;2022-08-14T13:10:21;3.40;;;3.30;;
9124;SDS011;4597;48.730;9.114;2022-08-14T13:12:47;3.67;;;3.47;;
9124;SDS011;4597;48.730;9.114;2022-08-14T13:15:14;3.58;;;3.38;;
9124;SDS011;4597;48.730;9.114;2022-08-14T13:17:42;3.72;;;3.50;;
9124;SDS011;4597;48.730;9.114;2022-08-14T13:20:13;4.18;;;3.78;;
9124;SDS011;4597;48.730;9.114;2022-08-14T13:22:41;3.50;;;3.28;;
9124;SDS011;4597;48.730;9.114;2022-08-14T13:25:19;3.10;;;3.00;;
9124;SDS011;4597;48.730;9.114;2022-08-14T13:27:49;3.35;;;3.15;;
9124;SDS011;4597;48.730;9.114;2022-08-14T13:30:16;4.00;;;3.70;;
9124;SDS011;4597;48.730;9.114;2022-08-14T13:32:44;3.50;;;3.40;;
9124;SDS011;4597;48.730;9.114;2022-08-14T13:35:10;3.75;;;3.55;;
9124;SDS011;4597;48.730;9.114;2022-08-14T13:37:37;3.58;;;3.47;;
9124;SDS011;4597;48.730;9.114;2022-08-14T13:40:05;3.78;;;3.58;;
9124;SDS011;4597;48.730;9.114;2022-08-14T13:42:32;3.13;;;3.03;;
9124;SDS011;4597;48.730;9.114;2022-08-14T13:45:02;3.35;;;3.15;;
9124;SDS011;4597;48.730;9.114;2022-08-14T13:47:28;3.17;;;3.05;;
9124;SDS011;4597;48.730;9.114;2022-08-14T13:49:57;3.47;;;3.38;;
9124;SDS011;4597;48.730;9.114;2022-08-14T13:52:42;3.75;;;3.50;;
9124;SDS011;4597;48.730;9.114;2022-08-14T13:55:15;3.95;;;3.65;;
9124;SDS011;4597;48.730;9.114;2022-08-14T13:57:42;3.45;;;3.25;;
9124;SDS011;4597;48.730;9.114;2022-08-14T14:00:12;3.60;;;3.40;;
9124;SDS011;4597;48.730;9.114;2022-08-14T14:02:39;4.63;;;3.38;;
9124;SDS011;4597;48.730;9.114;2022-08-14T14:05:06;3.80;;;3.60;;
9124;SDS011;4597;48.730;9.114;2022-08-14T14:07:33;3.30;;;3.20;;
9124;SDS011;4597;48.730;9.114;2022-08-14T14:10:00;3.70;;;3.50;;
9124;SDS011;4597;48.730;9.114;2022-08-14T14:12:29;3.60;;;3.40;;
9124;SDS011;4597;48.730;9.114;2022-08-14T14:14:55;3.78;;;3.58;;
9124;SDS011;4597;48.730;9.114;2022-08-14T14:17:23;3.50;;;3.40;;
9124;SDS011;4597;48.730;9.114;2022-08-14T14:19:50;3.22;;;3.10;;
9124;SDS011;4597;48.730;9.114;2022-08-14T14:22:16;3.25;;;3.13;;
9124;SDS011;4597;48.730;9.114;2022-08-14T14:24:42;3.15;;;3.00;;
9124;SDS011;4597;48.730;9.114;2022-08-14T14:27:09;3.17;;;2.97;;
9124;SDS011;4597;48.730;9.114;2022-08-14T14:29:36;3.10;;;3.00;;
9124;SDS011;4597;48.730;9.114;2022-08-14T14:32:03;3.13;;;3.03;;
9124;SDS011;4597;48.730;9.114;2022-08-14T14:34:29;3.50;;;3.30;;
9124;SDS011;4597;48.730;9.114;2022-08-14T14:36:57;3.47;;;3.38;;
9124;SDS011;4597;48.730;9.114;2022-08-14T14:39:29;3.30;;;3.20;;
9124;SDS011;4597;48.730;9.114;2022-08-14T14:41:57;3.20;;;3.10;;
9124;SDS011;4597;48.730;9.114;2022-08-14T14:44:26;3.85;;;3.65;;
9124;SDS011;4597;48.730;9.114;2022-08-14T14:46:56;3.80;;;3.50;;
9124;SDS011;4597;48.730;9.114;2022-08-14T14:49:24;3.42;;;3.33;;
9124;SDS011;4597;48.730;9.114;2022-08-14T14:51:50;3.58;;;3.40;;
9124;SDS011;4597;48.730;9.114;2022-08-14T14:54:16;3.33;;;3.10;;
9124;SDS011;4597;48.730;9.114;2022-08-14T14:56:45;3.58;;;3.47;;
9124;SDS011;4597;48.730;9.114;2022-08-14T14:59:11;3.08;;;2.92;;
9124;SDS011;4597;48.730;9.114;2022-08-14T15:01:41;3.42;;;3.22;;
9124;SDS011;4597;48.730;9.114;2022-08-14T15:04:11;3.60;;;3.40;;
9124;SDS011;4597;48.730;9.114;2022-08-14T15:06:37;3.10;;;3.00;;
9124;SDS011;4597;48.730;9.114;2022-08-14T15:09:02;3.15;;;3.05;;
9124;SDS011;4597;48.730;9.114;2022-08-14T15:11:29;3.58;;;3.30;;
9124;SDS011;4597;48.730;9.114;2022-08-14T15:13:54;3.47;;;3.28;;
9124;SDS011;4597;48.730;9.114;2022-08-14T15:16:20;2.92;;;2.83;;
9124;SDS011;4597;48.730;9.114;2022-08-14T15:18:46;2.85;;;2.75;;
9124;SDS011;4597;48.730;9.114;2022-08-14T15:21:12;3.20;;;3.10;;
9124;SDS011;4597;48.730;9.114;2022-08-14T15:23:39;3.05;;;2.92;;
9124;SDS011;4597;48.730;9.114;2022-08-14T15:26:05;2.80;;;2.70;;
9124;SDS011;4597;48.730;9.114;2022-08-14T15:28:31;3.10;;;3.00;;
9124;SDS011;4597;48.730;9.114;2022-08-14T15:31:00;3.33;;;3.00;;
9124;SDS011;4597;48.730;9.114;2022-08-14T15:33:27;3.00;;;2.90;;
9124;SDS011;4597;48.730;9.114;2022-08-14T15:36:11;3.15;;;2.95;;
9124;SDS011;4597;48.730;9.114;2022-08-14T15:38:37;3.30;;;3.20;;
9124;SDS011;4597;48.730;9.114;2022-08-14T15:41:03;3.10;;;3.00;;
9124;SDS011;4597;48.730;9.114;2022-08-14T15:43:29;3.15;;;3.05;;
9124;SDS011;4597;48.730;9.114;2022-08-14T15:46:00;3.33;;;3.22;;
9124;SDS011;4597;48.730;9.114;2022-08-14T15:48:31;3.20;;;3.00;;